Time;durP1;ratioP1;P1;durP2;ratioP2;P2;SDS_P1;SDS_P2;PMS_P1;PMS_P2;Temp;Humidity;BMP_temperature;BMP_pressure;BME280_temperature;BME280_humidity;BME280_pressure;Samples;Min_cycle;Max_cycle;Signal;HPM_P1;HPM_P2
2023/04/14 00:01:30;;;;;;;8.50;7.00;;;;;;;14.24;57.08;100898.09;106860;1274;24407;-55
2023/04/14 00:03:59;;;;;;;7.70;7.00;;;;;;;14.21;57.19;100903.42;106839;1267;25315;-55
2023/04/14 00:06:28;;;;;;;8.70;6.50;;;;;;;14.19;57.33;100909.95;106833;1268;22515;-55
2023/04/14 00:08:59;;;;;;;7.60;6.90;;;;;;;14.16;57.33;100919.64;107108;1267;25328;-55
2023/04/14 00:11:28;;;;;;;7.60;6.80;;;;;;;14.13;57.26;100918.16;106831;1267;25459;-55
2023/04/14 00:13:57;;;;;;;7.70;7.00;;;;;;;14.08;57.17;100913.46;106910;1266;23258;-55
2023/04/14 00:16:26;;;;;;;8.60;7.70;;;;;;;14.04;57.25;100917.28;107119;1273;25372;-56
2023/04/14 00:18:55;;;;;;;8.20;7.40;;;;;;;14.02;57.28;100916.30;107010;1270;22531;-55
2023/04/14 00:21:23;;;;;;;8.00;7.20;;;;;;;13.99;57.28;100915.00;107043;1267;25402;-55
2023/04/14 00:23:55;;;;;;;7.80;7.10;;;;;;;13.99;57.17;100914.14;107100;1267;25414;-55
2023/04/14 00:26:24;;;;;;;8.50;7.40;;;;;;;13.97;57.12;100912.63;106845;1266;22521;-55
2023/04/14 00:28:52;;;;;;;8.10;7.30;;;;;;;13.95;57.04;100912.16;107073;1267;22529;-55
2023/04/14 00:31:24;;;;;;;8.20;7.40;;;;;;;13.92;57.04;100912.77;107112;1273;25369;-55
2023/04/14 00:33:53;;;;;;;7.90;7.20;;;;;;;13.90;57.09;100908.33;107021;1267;22515;-55
2023/04/14 00:36:21;;;;;;;8.30;7.50;;;;;;;13.88;57.17;100910.65;106999;1257;25334;-55
2023/04/14 00:38:50;;;;;;;8.60;7.80;;;;;;;13.86;57.22;100914.04;107258;1270;25529;-55
2023/04/14 00:41:18;;;;;;;9.00;8.10;;;;;;;13.83;57.27;100917.96;106796;1273;25363;-55
2023/04/14 00:43:47;;;;;;;8.80;7.90;;;;;;;13.81;57.24;100920.64;107115;1271;26518;-55
2023/04/14 00:46:15;;;;;;;8.40;7.60;;;;;;;13.78;57.27;100920.92;106998;1267;23902;-55
2023/04/14 00:48:44;;;;;;;9.30;8.40;;;;;;;13.75;57.33;100922.58;106990;1267;23814;-55
2023/04/14 00:51:13;;;;;;;9.90;7.30;;;;;;;13.73;57.32;100923.69;106733;1267;25399;-55
2023/04/14 00:53:41;;;;;;;9.70;8.80;;;;;;;13.72;57.46;100924.23;106943;1273;25465;-55
2023/04/14 00:56:10;;;;;;;8.80;8.00;;;;;;;13.69;57.50;100923.11;106863;1272;25408;-55
2023/04/14 00:58:39;;;;;;;9.00;8.00;;;;;;;13.67;57.61;100922.33;106863;1269;25328;-55
2023/04/14 01:01:08;;;;;;;9.40;8.40;;;;;;;13.64;57.46;100922.95;106897;1270;25795;-55
2023/04/14 01:03:38;;;;;;;9.20;8.40;;;;;;;13.62;57.48;100917.42;107100;1271;25412;-55
2023/04/14 01:06:07;;;;;;;8.70;7.80;;;;;;;13.60;57.53;100916.45;106809;1275;25487;-55
2023/04/14 01:08:36;;;;;;;8.70;7.80;;;;;;;13.58;57.59;100913.73;107012;1254;25414;-56
2023/04/14 01:11:16;;;;;;;8.70;7.90;;;;;;;13.56;57.64;100906.80;107105;1275;25331;-55
2023/04/14 01:14:23;;;;;;;9.20;8.30;;;;;;;13.54;57.59;100903.22;107009;1272;22530;-54
2023/04/14 01:16:54;;;;;;;8.70;7.80;;;;;;;13.51;57.63;100905.23;107102;1267;25319;-55
2023/04/14 01:19:33;;;;;;;9.20;8.20;;;;;;;13.48;57.79;100906.55;106982;1272;25490;-55
2023/04/14 01:22:05;;;;;;;8.70;7.90;;;;;;;13.46;57.87;100911.65;107130;1273;22515;-55
2023/04/14 01:25:08;;;;;;;10.00;8.30;;;;;;;13.44;58.05;100910.15;107053;1270;25254;-55
2023/04/14 01:28:05;;;;;;;8.80;8.00;;;;;;;13.43;57.99;100912.11;107076;1269;25356;-55
2023/04/14 01:30:39;;;;;;;9.50;8.10;;;;;;;13.41;58.18;100916.52;107116;1269;26006;-55
2023/04/14 01:33:10;;;;;;;8.60;7.80;;;;;;;13.39;58.20;100918.66;107109;1270;22515;-55
2023/04/14 01:35:45;;;;;;;8.70;7.90;;;;;;;13.39;58.22;100916.24;107075;1272;25346;-56
2023/04/14 01:38:20;;;;;;;8.20;7.40;;;;;;;13.38;58.24;100912.61;106858;1274;22608;-55
2023/04/14 01:40:50;;;;;;;9.10;8.30;;;;;;;13.37;58.25;100913.69;107018;1270;26496;-55
2023/04/14 01:43:23;;;;;;;8.90;8.00;;;;;;;13.36;58.27;100909.54;107107;1273;24435;-55
2023/04/14 01:45:52;;;;;;;8.40;7.50;;;;;;;13.35;58.28;100906.09;107041;1270;25268;-55
2023/04/14 01:48:22;;;;;;;9.50;8.50;;;;;;;13.34;58.32;100902.61;107008;1269;23436;-55
2023/04/14 01:50:50;;;;;;;9.50;8.50;;;;;;;13.34;58.39;100899.84;106778;1270;25318;-55
2023/04/14 01:53:19;;;;;;;8.80;8.00;;;;;;;13.33;58.48;100902.66;106842;1273;25376;-55
2023/04/14 01:55:48;;;;;;;8.30;7.50;;;;;;;13.33;58.42;100903.54;106856;1273;25357;-54
2023/04/14 01:58:17;;;;;;;9.00;7.80;;;;;;;13.32;58.50;100905.46;106761;1266;25365;-55
2023/04/14 02:00:46;;;;;;;8.80;7.90;;;;;;;13.32;58.48;100905.30;106722;1276;25518;-55
2023/04/14 02:03:15;;;;;;;8.80;8.00;;;;;;;13.31;58.59;100903.77;106785;1273;25510;-55
2023/04/14 02:05:44;;;;;;;8.60;7.80;;;;;;;13.31;58.51;100903.95;106831;1273;22521;-55
2023/04/14 02:08:13;;;;;;;8.30;7.40;;;;;;;13.30;58.63;100907.45;106639;1277;22643;-55
2023/04/14 02:10:43;;;;;;;9.50;8.60;;;;;;;13.30;58.67;100904.67;106448;1276;24466;-55
2023/04/14 02:13:16;;;;;;;8.90;8.00;;;;;;;13.29;58.66;100904.69;106344;1281;25490;-55
2023/04/14 02:15:47;;;;;;;9.10;8.30;;;;;;;13.29;58.74;100914.63;106434;1273;24465;-55
2023/04/14 02:18:18;;;;;;;9.00;8.10;;;;;;;13.29;58.67;100914.11;106593;1274;25519;-55
2023/04/14 02:20:46;;;;;;;9.00;8.20;;;;;;;13.29;58.88;100914.10;106570;1271;22663;-56
2023/04/14 02:23:27;;;;;;;9.20;8.30;;;;;;;13.29;58.79;100917.74;106624;1273;25331;-55
2023/04/14 02:26:04;;;;;;;10.60;7.80;;;;;;;13.29;58.91;100915.66;106709;1279;22530;-55
2023/04/14 02:28:36;;;;;;;8.90;8.00;;;;;;;13.29;58.84;100920.02;106756;1276;24246;-55
2023/04/14 02:31:07;;;;;;;8.20;7.40;;;;;;;13.29;58.92;100919.15;106407;1276;411080;-55
2023/04/14 02:33:36;;;;;;;10.20;8.10;;;;;;;13.29;58.97;100922.27;106742;1276;25353;-55
2023/04/14 02:36:18;;;;;;;8.50;7.60;;;;;;;13.29;58.87;100922.66;106784;1272;23224;-55
2023/04/14 02:39:09;;;;;;;8.80;7.90;;;;;;;13.28;58.79;100921.27;106714;1272;24240;-55
2023/04/14 02:41:38;;;;;;;9.70;7.80;;;;;;;13.28;58.70;100923.20;106317;1273;1002849;-55
2023/04/14 02:44:18;;;;;;;9.10;8.20;;;;;;;13.27;58.78;100926.36;106869;1257;22564;-55
2023/04/14 02:47:02;;;;;;;9.00;8.10;;;;;;;13.27;58.80;100922.69;106675;1277;25494;-55
2023/04/14 02:49:37;;;;;;;9.00;8.10;;;;;;;13.27;58.75;100924.10;106809;1272;25006;-55
2023/04/14 02:52:06;;;;;;;8.50;7.20;;;;;;;13.27;58.75;100917.31;106610;1258;24407;-55
2023/04/14 02:54:35;;;;;;;8.60;7.80;;;;;;;13.26;58.66;100921.33;106614;1278;22645;-55
2023/04/14 02:57:04;;;;;;;8.10;7.10;;;;;;;13.22;58.68;100929.15;106768;1273;24339;-55
2023/04/14 02:59:33;;;;;;;8.00;7.00;;;;;;;13.14;58.82;100935.98;106820;1273;22621;-55
2023/04/14 03:02:05;;;;;;;8.80;7.90;;;;;;;13.07;59.09;100934.95;106701;1275;25325;-55
2023/04/14 03:04:37;;;;;;;8.30;7.50;;;;;;;13.02;59.37;100933.66;106912;1270;25356;-55
2023/04/14 03:07:11;;;;;;;9.50;8.60;;;;;;;13.03;59.49;100938.88;106852;1271;25533;-55
2023/04/14 03:09:39;;;;;;;8.20;7.40;;;;;;;13.06;59.47;100940.73;106774;1270;23862;-55
2023/04/14 03:12:11;;;;;;;8.70;7.80;;;;;;;13.08;59.45;100939.80;106797;1272;25415;-55
2023/04/14 03:14:41;;;;;;;8.60;7.70;;;;;;;13.10;59.44;100933.48;106771;1273;22530;-55
2023/04/14 03:17:10;;;;;;;9.20;8.30;;;;;;;13.12;59.40;100935.70;107141;1270;25427;-55
2023/04/14 03:19:40;;;;;;;8.30;7.50;;;;;;;13.14;59.36;100942.62;107071;1275;25497;-55
2023/04/14 03:22:09;;;;;;;9.10;7.60;;;;;;;13.15;59.40;100943.80;107160;1270;22665;-55
2023/04/14 03:24:38;;;;;;;8.80;7.90;;;;;;;13.17;59.28;100947.59;107177;1267;24221;-55
2023/04/14 03:27:13;;;;;;;9.10;8.20;;;;;;;13.17;59.17;100954.54;106936;1270;24539;-55
2023/04/14 03:29:44;;;;;;;8.30;7.30;;;;;;;13.18;58.94;100959.20;107122;1257;22535;-55
2023/04/14 03:32:15;;;;;;;8.30;7.40;;;;;;;13.18;58.90;100962.70;106871;1273;25318;-55
2023/04/14 03:34:55;;;;;;;8.70;7.70;;;;;;;13.19;58.90;100964.94;106781;1270;25356;-55
2023/04/14 03:37:25;;;;;;;9.70;7.90;;;;;;;13.20;58.98;100967.69;106717;1272;25357;-55
2023/04/14 03:39:59;;;;;;;8.80;7.90;;;;;;;13.20;58.87;100964.73;106570;1271;25383;-55
2023/04/14 03:42:31;;;;;;;8.50;7.70;;;;;;;13.18;58.78;100963.57;106762;1270;24289;-55
2023/04/14 03:44:59;;;;;;;8.20;7.30;;;;;;;13.15;58.81;100963.16;106797;1269;22503;-55
2023/04/14 03:47:30;;;;;;;9.30;8.20;;;;;;;13.15;58.81;100959.84;106752;1270;23600;-55
2023/04/14 03:50:00;;;;;;;8.50;7.60;;;;;;;13.17;58.75;100956.48;106706;1276;24246;-55
2023/04/14 03:52:32;;;;;;;8.50;7.70;;;;;;;13.18;58.89;100959.21;106845;1271;22701;-55
2023/04/14 03:55:05;;;;;;;9.20;8.20;;;;;;;13.19;59.01;100959.36;106686;1278;23861;-55
2023/04/14 03:57:37;;;;;;;12.20;7.80;;;;;;;13.21;58.91;100956.00;106473;1277;22674;-55
2023/04/14 04:00:08;;;;;;;8.40;7.60;;;;;;;13.22;58.91;100957.52;106249;1279;25353;-55
2023/04/14 04:03:04;;;;;;;8.70;7.80;;;;;;;13.25;58.90;100959.02;106494;1276;25429;-55
2023/04/14 04:05:34;;;;;;;11.50;10.30;;;;;;;13.25;58.68;100959.53;106540;1276;24529;-55
2023/04/14 04:08:02;;;;;;;10.00;9.00;;;;;;;13.22;58.60;100960.85;106742;1274;22531;-55
2023/04/14 04:10:32;;;;;;;8.40;7.40;;;;;;;13.17;58.74;100962.73;106745;1270;25331;-55
2023/04/14 04:13:01;;;;;;;9.80;8.20;;;;;;;13.16;59.01;100964.69;106777;1275;25412;-55
2023/04/14 04:15:35;;;;;;;9.40;8.20;;;;;;;13.17;59.15;100966.73;106732;1270;25516;-55
2023/04/14 04:18:06;;;;;;;9.10;8.10;;;;;;;13.21;59.24;100968.00;106511;1277;25352;-55
2023/04/14 04:20:36;;;;;;;9.40;7.50;;;;;;;13.26;59.41;100965.41;106702;1278;25373;-55
2023/04/14 04:23:05;;;;;;;8.50;7.70;;;;;;;13.31;59.49;100966.15;106807;1271;22542;-55
2023/04/14 04:25:35;;;;;;;9.00;8.10;;;;;;;13.37;59.51;100968.05;106772;1270;24285;-55
2023/04/14 04:28:13;;;;;;;8.30;7.50;;;;;;;13.39;59.37;100967.98;106677;1273;25325;-55
2023/04/14 04:30:44;;;;;;;8.30;7.50;;;;;;;13.40;59.11;100973.70;106743;1270;25353;-55
2023/04/14 04:33:14;;;;;;;9.20;8.10;;;;;;;13.41;59.24;100973.66;106612;1276;22524;-55
2023/04/14 04:35:43;;;;;;;8.50;7.70;;;;;;;13.46;59.28;100974.56;106743;1273;22670;-55
2023/04/14 04:38:15;;;;;;;8.40;7.50;;;;;;;13.51;59.25;100973.52;107089;1270;25408;-54
2023/04/14 04:44:10;;;;;;;8.80;7.60;;;;;;;13.64;59.14;100977.52;103733;1298;545133;-55
2023/04/14 04:46:44;;;;;;;8.30;7.60;;;;;;;13.66;59.15;100978.33;105886;1281;22540;-55
2023/04/14 04:49:16;;;;;;;8.70;7.80;;;;;;;13.71;59.17;100975.54;106113;1281;25386;-55
2023/04/14 04:51:45;;;;;;;7.80;7.00;;;;;;;13.77;59.24;100977.96;106085;1281;22668;-55
2023/04/14 04:54:14;;;;;;;9.00;7.30;;;;;;;13.84;59.17;100977.57;105787;1289;25406;-55
2023/04/14 04:56:43;;;;;;;8.50;7.60;;;;;;;13.90;59.00;100975.30;105785;1281;224727;-55
2023/04/14 04:59:12;;;;;;;8.00;7.30;;;;;;;13.93;58.83;100974.48;106438;1267;26526;-55
2023/04/14 05:01:43;;;;;;;11.10;7.80;;;;;;;13.98;58.67;100975.38;106171;1280;25555;-55
2023/04/14 05:04:12;;;;;;;7.70;6.90;;;;;;;14.02;58.53;100979.09;107041;1268;25513;-55
2023/04/14 05:06:41;;;;;;;9.60;8.10;;;;;;;14.04;58.54;100977.27;107053;1267;25388;-56
2023/04/14 05:09:11;;;;;;;8.20;7.30;;;;;;;14.09;58.62;100976.94;107012;1267;25339;-55
2023/04/14 05:11:40;;;;;;;9.30;7.60;;;;;;;14.15;58.59;100978.82;107001;1267;25766;-56
2023/04/14 05:14:08;;;;;;;8.40;7.60;;;;;;;14.23;58.58;100985.37;107034;1268;25349;-55
2023/04/14 05:16:37;;;;;;;7.70;7.00;;;;;;;14.30;58.55;100987.23;107102;1269;25342;-55
2023/04/14 05:19:10;;;;;;;8.10;7.30;;;;;;;14.38;58.51;100989.09;107036;1267;25427;-55
2023/04/14 05:21:41;;;;;;;8.00;7.20;;;;;;;14.44;58.41;100983.46;106912;1271;24036;-55
2023/04/14 05:24:10;;;;;;;7.80;7.10;;;;;;;14.50;58.43;100986.20;107112;1260;25356;-54
2023/04/14 05:26:38;;;;;;;8.10;7.30;;;;;;;14.57;58.39;100987.37;107015;1267;24370;-55
2023/04/14 05:29:10;;;;;;;8.90;7.10;;;;;;;14.65;58.35;100989.71;107171;1267;25786;-55
2023/04/14 05:31:39;;;;;;;7.80;7.00;;;;;;;14.73;58.26;100987.17;107086;1267;25479;-55
2023/04/14 05:34:07;;;;;;;8.00;6.80;;;;;;;14.80;58.19;100989.73;107028;1267;25407;-55
2023/04/14 05:36:37;;;;;;;6.80;6.20;;;;;;;14.87;58.14;100988.79;107028;1269;22534;-54
2023/04/14 05:39:06;;;;;;;7.00;6.30;;;;;;;14.93;57.77;100986.13;107031;1268;25345;-55
2023/04/14 05:41:38;;;;;;;7.60;6.90;;;;;;;14.97;57.64;100989.27;107025;1267;25342;-55
2023/04/14 05:44:07;;;;;;;7.70;6.50;;;;;;;15.07;57.96;100987.52;106893;1269;25328;-54
2023/04/14 05:46:35;;;;;;;8.50;7.70;;;;;;;15.27;57.89;100989.73;106776;1271;25453;-54
2023/04/14 05:49:05;;;;;;;8.40;7.30;;;;;;;15.56;57.53;100992.52;107016;1268;25353;-55
2023/04/14 05:51:33;;;;;;;7.40;6.70;;;;;;;15.90;57.15;100984.52;106291;1267;1003046;-54
2023/04/14 05:54:06;;;;;;;8.10;7.30;;;;;;;16.37;56.42;100982.23;106491;1275;25402;-54
2023/04/14 05:56:35;;;;;;;6.90;6.20;;;;;;;16.88;55.06;100984.74;107008;1268;22533;-55
2023/04/14 05:59:04;;;;;;;7.10;6.40;;;;;;;17.45;53.98;100983.23;106819;1269;25358;-55
2023/04/14 06:01:32;;;;;;;7.00;6.40;;;;;;;18.07;52.35;100977.77;106851;1268;25357;-55
2023/04/14 06:04:02;;;;;;;6.80;6.10;;;;;;;18.59;50.72;100974.80;107050;1268;25367;-55
2023/04/14 06:06:32;;;;;;;7.20;6.50;;;;;;;19.13;49.71;100974.58;107039;1268;24350;-53
2023/04/14 06:09:04;;;;;;;7.00;6.40;;;;;;;19.69;48.75;100972.21;106814;1268;25419;-53
2023/04/14 06:11:34;;;;;;;6.70;5.80;;;;;;;20.20;47.54;100974.73;107013;1268;25631;-53
2023/04/14 11:18:28;;;;;;;6.50;5.40;;;;;;;20.30;48.09;101014.88;106927;1254;22773;-52
2023/04/14 11:21:01;;;;;;;;;;;;;;;20.30;48.13;101016.14;107038;1268;26688;-53
2023/04/14 11:23:35;;;;;;;7.70;5.50;;;;;;;20.31;47.85;101017.45;106953;1268;23322;-53
2023/04/14 11:26:09;;;;;;;8.20;6.10;;;;;;;20.31;47.66;101018.88;106925;1268;25323;-53
2023/04/14 11:28:45;;;;;;;6.30;5.60;;;;;;;20.30;47.86;101015.92;106986;1269;25373;-54
2023/04/14 11:31:15;;;;;;;6.10;5.30;;;;;;;20.31;48.26;101012.39;107054;1270;22528;-54
2023/04/14 11:33:44;;;;;;;5.70;5.20;;;;;;;20.24;48.61;101008.00;107058;1269;22648;-54
2023/04/14 11:36:15;;;;;;;5.60;5.10;;;;;;;20.23;48.73;101010.89;106991;1268;25433;-54
2023/04/14 11:38:46;;;;;;;6.20;5.60;;;;;;;20.25;48.60;101006.73;106775;1271;25362;-54
2023/04/14 11:41:15;;;;;;;5.50;5.00;;;;;;;20.26;48.50;101005.98;106732;1273;22572;-54
2023/04/14 11:43:47;;;;;;;5.50;5.00;;;;;;;20.33;48.33;101009.80;106775;1272;22539;-54
2023/04/14 11:46:19;;;;;;;5.80;5.30;;;;;;;20.36;48.33;101011.04;107145;1269;22520;-54
2023/04/14 11:48:54;;;;;;;6.10;5.00;;;;;;;20.36;48.12;101008.88;107079;1269;22527;-54
2023/04/14 11:51:31;;;;;;;5.70;5.20;;;;;;;20.37;48.09;101009.55;106993;1275;22528;-54
2023/04/14 11:54:00;;;;;;;6.40;5.30;;;;;;;20.38;48.12;101013.54;106837;1273;23023;-54
2023/04/14 11:56:29;;;;;;;5.80;4.80;;;;;;;20.40;48.19;101013.59;107010;1269;25318;-54
2023/04/14 11:59:01;;;;;;;6.60;5.30;;;;;;;20.43;48.29;101014.83;107030;1268;25338;-54
2023/04/14 12:01:31;;;;;;;5.40;4.90;;;;;;;20.47;48.19;101015.51;107099;1271;22523;-54
2023/04/14 12:04:01;;;;;;;6.40;5.60;;;;;;;20.49;48.01;101014.83;107059;1269;25356;-54
2023/04/14 12:06:34;;;;;;;5.30;4.80;;;;;;;20.50;48.02;101009.65;107031;1269;25331;-54
2023/04/14 12:09:07;;;;;;;5.50;5.00;;;;;;;20.52;47.74;101013.05;107082;1269;25337;-54
2023/04/14 12:11:36;;;;;;;5.10;4.70;;;;;;;20.53;47.48;101010.19;107070;1268;22637;-54
2023/04/14 12:14:05;;;;;;;5.80;5.30;;;;;;;20.54;47.29;101009.09;107042;1269;25519;-54
2023/04/14 12:16:33;;;;;;;5.70;5.20;;;;;;;20.53;47.37;101008.95;106797;1268;25376;-54
2023/04/14 12:19:02;;;;;;;5.70;5.20;;;;;;;20.51;47.41;101011.34;106960;1272;24206;-54
2023/04/14 12:21:32;;;;;;;5.80;5.30;;;;;;;20.49;47.29;101009.17;107009;1268;23144;-54
2023/04/14 12:24:00;;;;;;;5.90;5.40;;;;;;;20.49;47.34;101009.20;106877;1268;22532;-54
2023/04/14 12:26:31;;;;;;;5.70;5.10;;;;;;;20.47;47.50;101013.88;107037;1269;25331;-54
2023/04/14 12:29:00;;;;;;;5.40;4.90;;;;;;;20.47;47.81;101014.05;106957;1268;25379;-54
2023/04/14 12:31:29;;;;;;;6.40;5.20;;;;;;;20.48;48.07;101012.80;107042;1269;22631;-54
2023/04/14 12:34:00;;;;;;;6.30;5.70;;;;;;;20.48;48.06;101014.36;106937;1275;25521;-54
2023/04/14 12:36:30;;;;;;;6.70;5.50;;;;;;;20.50;48.02;101018.64;107055;1269;22612;-54
2023/04/14 12:39:26;;;;;;;5.70;5.00;;;;;;;20.51;48.01;101014.55;106981;1275;26506;-54
2023/04/14 12:41:57;;;;;;;6.00;5.50;;;;;;;20.52;48.21;101011.32;107049;1269;25287;-54
2023/04/14 12:44:25;;;;;;;6.70;5.90;;;;;;;20.52;48.17;101006.56;107046;1268;22527;-54
2023/04/14 12:46:54;;;;;;;5.60;4.80;;;;;;;20.52;47.96;101011.52;107004;1268;22538;-54
2023/04/14 12:49:36;;;;;;;5.50;5.00;;;;;;;20.48;47.71;101006.05;107044;1269;23871;-54
2023/04/14 12:52:06;;;;;;;5.20;4.70;;;;;;;20.45;47.48;101006.98;106955;1270;22543;-54
2023/04/14 12:54:46;;;;;;;5.80;5.00;;;;;;;20.41;47.61;101007.21;106963;1275;24213;-54
2023/04/14 12:57:20;;;;;;;5.70;5.20;;;;;;;20.38;47.72;101005.63;107040;1268;25570;-54
2023/04/14 12:59:49;;;;;;;5.50;4.70;;;;;;;20.34;47.66;101011.52;107060;1268;22765;-54
2023/04/14 13:02:18;;;;;;;5.80;5.30;;;;;;;20.30;47.71;101010.84;107016;1269;24388;-54
2023/04/14 13:04:48;;;;;;;6.00;5.40;;;;;;;20.26;47.71;101005.81;106978;1268;25436;-54
2023/04/14 13:07:19;;;;;;;5.80;4.80;;;;;;;20.21;47.88;101001.48;106950;1268;25796;-53
2023/04/14 13:09:47;;;;;;;5.60;5.10;;;;;;;20.16;48.08;101003.83;107006;1271;24196;-54
2023/04/14 13:12:16;;;;;;;4.90;4.50;;;;;;;20.14;48.22;101003.83;107047;1269;26499;-54
2023/04/14 13:14:47;;;;;;;5.10;4.70;;;;;;;20.11;48.30;101003.44;107011;1269;24260;-54
2023/04/14 13:17:15;;;;;;;5.50;4.10;;;;;;;20.09;48.36;101001.11;107224;1268;25342;-54
2023/04/14 13:19:44;;;;;;;6.20;5.00;;;;;;;20.07;48.51;101004.05;107050;1269;22526;-54
2023/04/14 13:22:15;;;;;;;5.20;4.70;;;;;;;20.06;48.64;101005.31;107064;1268;22524;-54
2023/04/14 13:24:43;;;;;;;5.90;5.30;;;;;;;20.06;48.82;101005.32;106973;1269;23913;-54
2023/04/14 13:27:12;;;;;;;5.00;4.60;;;;;;;20.05;48.63;101003.82;106707;1269;22507;-55
2023/04/14 13:29:46;;;;;;;6.70;5.40;;;;;;;20.03;48.53;101001.29;106975;1272;25335;-54
2023/04/14 13:32:15;;;;;;;5.60;4.90;;;;;;;19.99;48.58;101005.59;106746;1275;25355;-54
2023/04/14 13:34:45;;;;;;;6.40;5.40;;;;;;;19.96;48.78;101006.98;107069;1268;22569;-54
2023/04/14 13:37:14;;;;;;;5.80;5.20;;;;;;;19.91;48.77;101011.66;107006;1268;25078;-54
2023/04/14 13:39:43;;;;;;;6.40;4.80;;;;;;;19.88;48.91;101007.96;106437;1276;22737;-54
2023/04/14 13:42:13;;;;;;;5.90;5.10;;;;;;;19.85;48.84;101009.91;107057;1268;24272;-54
2023/04/14 13:44:42;;;;;;;5.40;4.70;;;;;;;19.82;48.82;101007.60;107021;1270;22542;-54
2023/04/14 13:47:11;;;;;;;5.10;4.70;;;;;;;19.79;49.08;101007.92;107086;1270;25422;-54
2023/04/14 13:49:39;;;;;;;5.40;4.90;;;;;;;19.78;49.20;101006.22;107077;1268;25372;-54
2023/04/14 13:52:08;;;;;;;5.70;5.10;;;;;;;19.78;49.11;101003.77;106990;1269;25320;-54
2023/04/14 13:54:37;;;;;;;5.40;4.90;;;;;;;19.78;49.27;101002.35;107017;1272;25322;-54
2023/04/14 13:57:06;;;;;;;5.40;4.90;;;;;;;19.79;49.33;100998.63;107013;1269;22544;-54
2023/04/14 13:59:35;;;;;;;6.50;4.80;;;;;;;19.80;49.38;101000.16;107000;1269;26563;-54
2023/04/14 14:02:05;;;;;;;6.10;5.30;;;;;;;19.79;49.37;100998.23;107056;1268;22525;-54
2023/04/14 14:04:35;;;;;;;5.00;4.50;;;;;;;19.77;49.26;100993.95;107003;1269;25217;-55
2023/04/14 14:07:04;;;;;;;7.60;5.30;;;;;;;19.74;49.21;100997.80;106770;1273;22641;-54
2023/04/14 14:09:33;;;;;;;5.60;4.80;;;;;;;19.71;49.15;100996.44;106797;1259;22521;-54
2023/04/14 14:12:02;;;;;;;5.60;4.90;;;;;;;19.66;49.33;100997.56;106758;1271;25365;-54
2023/04/14 14:14:31;;;;;;;6.50;4.50;;;;;;;19.62;49.41;101001.48;107055;1270;25352;-54
2023/04/14 14:17:00;;;;;;;4.80;4.40;;;;;;;19.59;49.45;101003.63;107033;1270;25379;-54
2023/04/14 14:19:28;;;;;;;4.90;4.40;;;;;;;19.57;49.65;101003.73;105994;1269;1002855;-54
2023/04/14 14:21:58;;;;;;;4.60;4.20;;;;;;;19.56;49.88;101000.27;106996;1271;22615;-54
2023/04/14 14:24:27;;;;;;;5.40;4.50;;;;;;;19.57;49.88;100997.73;106964;1270;23784;-54
2023/04/14 14:26:55;;;;;;;5.10;4.60;;;;;;;19.58;49.85;101001.55;107039;1268;22549;-54
2023/04/14 14:29:24;;;;;;;5.20;4.70;;;;;;;19.58;49.64;101003.69;107011;1268;25337;-54
2023/04/14 14:31:52;;;;;;;4.70;4.00;;;;;;;19.56;49.69;100999.55;106822;1270;24362;-54
2023/04/14 14:34:21;;;;;;;5.30;4.80;;;;;;;19.54;49.81;100988.77;107043;1271;25331;-54
2023/04/14 14:36:50;;;;;;;4.70;4.30;;;;;;;19.51;49.80;100987.34;107006;1270;22528;-53
2023/04/14 14:39:20;;;;;;;4.70;4.20;;;;;;;19.41;49.71;100992.63;106213;1268;1003636;-54
2023/04/14 14:41:50;;;;;;;4.30;3.90;;;;;;;19.32;49.78;100995.55;107006;1271;22654;-54
2023/04/14 14:44:18;;;;;;;4.50;4.00;;;;;;;19.27;50.04;100994.73;107000;1269;25364;-54
2023/04/14 14:46:51;;;;;;;6.60;4.20;;;;;;;19.25;50.11;100991.85;106791;1270;25459;-54
2023/04/14 14:49:20;;;;;;;4.40;4.00;;;;;;;19.24;50.16;100990.02;106824;1269;25800;-54
2023/04/14 14:51:48;;;;;;;4.30;3.90;;;;;;;19.20;50.26;100983.70;106965;1271;25349;-54
2023/04/14 14:54:16;;;;;;;4.40;4.00;;;;;;;19.16;50.55;100986.39;106979;1269;25395;-54
2023/04/14 14:56:46;;;;;;;4.30;3.80;;;;;;;19.10;50.64;100988.29;107020;1271;25331;-54
2023/04/14 14:59:15;;;;;;;4.40;3.80;;;;;;;19.04;50.55;100992.11;107172;1270;25362;-54
2023/04/14 15:01:45;;;;;;;4.80;4.10;;;;;;;18.97;50.76;100991.99;107097;1269;22644;-54
2023/04/14 15:04:15;;;;;;;3.90;3.50;;;;;;;18.90;51.01;100989.56;107055;1271;22790;-54
2023/04/14 15:06:44;;;;;;;4.20;3.70;;;;;;;18.81;51.00;100989.30;106954;1269;22634;-54
2023/04/14 15:09:13;;;;;;;3.60;3.20;;;;;;;18.60;51.46;100987.92;107115;1270;24279;-54
2023/04/14 15:11:46;;;;;;;4.60;3.50;;;;;;;18.52;51.64;100986.77;107010;1269;25440;-54
2023/04/14 15:14:15;;;;;;;4.00;3.40;;;;;;;18.56;51.74;100983.92;107037;1271;24186;-54
2023/04/14 15:16:43;;;;;;;3.30;3.00;;;;;;;18.50;51.96;100980.91;107043;1271;25405;-54
2023/04/14 15:19:14;;;;;;;5.30;4.00;;;;;;;18.44;52.01;100977.88;106876;1270;23989;-54
2023/04/14 15:21:44;;;;;;;6.00;4.00;;;;;;;18.37;52.27;100970.28;107042;1269;25352;-54
2023/04/14 15:24:13;;;;;;;3.90;3.60;;;;;;;18.33;52.42;100972.29;106997;1275;25328;-54
2023/04/14 15:26:47;;;;;;;6.50;4.20;;;;;;;18.27;52.53;100967.14;106968;1270;25357;-54
2023/04/14 15:29:18;;;;;;;5.40;4.10;;;;;;;18.21;52.75;100963.56;107021;1266;25334;-54
2023/04/14 15:31:46;;;;;;;4.20;3.80;;;;;;;18.15;52.78;100957.03;107021;1269;22638;-54
2023/04/14 15:34:15;;;;;;;4.70;3.90;;;;;;;18.07;52.99;100951.64;107060;1270;25451;-53
2023/04/14 15:36:44;;;;;;;3.90;3.60;;;;;;;17.99;53.01;100947.46;107036;1269;25242;-54
2023/04/14 15:39:13;;;;;;;4.80;3.90;;;;;;;17.92;53.01;100941.68;107071;1267;25380;-54
2023/04/14 15:41:43;;;;;;;4.10;3.50;;;;;;;17.86;53.10;100945.63;107045;1267;25328;-54
2023/04/14 15:44:12;;;;;;;5.90;4.30;;;;;;;17.79;53.22;100943.15;106849;1267;25349;-54
2023/04/14 15:46:41;;;;;;;4.70;4.30;;;;;;;17.73;53.46;100950.49;106952;1270;22974;-55
2023/04/14 15:49:10;;;;;;;5.10;4.20;;;;;;;17.69;53.58;100959.28;106949;1272;25354;-54
2023/04/14 15:51:39;;;;;;;5.20;3.80;;;;;;;17.65;53.77;100965.25;107035;1270;25373;-54
2023/04/14 15:54:08;;;;;;;5.00;3.70;;;;;;;17.64;53.87;100971.96;107062;1268;25387;-54
2023/04/14 15:56:37;;;;;;;4.60;4.20;;;;;;;17.64;53.84;100970.42;107080;1268;25437;-54
2023/04/14 15:59:06;;;;;;;6.40;3.80;;;;;;;17.63;53.71;100975.36;107082;1270;25363;-54
2023/04/14 16:01:34;;;;;;;6.10;4.00;;;;;;;17.61;53.70;100978.24;107066;1270;22531;-54
2023/04/14 16:04:03;;;;;;;4.10;3.70;;;;;;;17.60;53.77;100980.94;107045;1270;22577;-53
2023/04/14 16:06:36;;;;;;;4.60;3.40;;;;;;;17.58;53.75;100980.85;107054;1269;25432;-54
2023/04/14 16:09:05;;;;;;;3.60;3.20;;;;;;;17.56;53.61;100984.27;107058;1270;22528;-54
2023/04/14 16:11:35;;;;;;;4.90;3.30;;;;;;;17.60;53.31;100981.11;107057;1268;25363;-54
2023/04/14 16:14:07;;;;;;;3.50;3.20;;;;;;;17.58;53.29;100984.02;106829;1270;25375;-54
2023/04/14 16:16:37;;;;;;;3.30;2.90;;;;;;;17.54;53.11;100987.39;107098;1268;22609;-54
2023/04/14 16:19:05;;;;;;;3.20;2.90;;;;;;;17.47;53.06;100989.41;106986;1273;25593;-53
2023/04/14 16:21:34;;;;;;;3.30;2.80;;;;;;;17.42;53.20;100994.41;106956;1270;25374;-53
2023/04/14 16:24:03;;;;;;;2.70;2.40;;;;;;;17.35;53.26;100997.31;107068;1269;25286;-53
2023/04/14 16:26:32;;;;;;;4.60;2.70;;;;;;;17.31;53.24;101003.67;106815;1270;22996;-54
2023/04/14 16:29:01;;;;;;;3.20;2.40;;;;;;;17.25;53.26;101006.59;106972;1268;25367;-53
2023/04/14 16:31:30;;;;;;;4.10;2.40;;;;;;;17.23;53.03;101006.84;107042;1268;25376;-53
2023/04/14 16:33:59;;;;;;;2.40;2.10;;;;;;;17.20;52.94;101009.27;106775;1275;24532;-53
2023/04/14 16:36:28;;;;;;;3.00;2.50;;;;;;;17.17;52.94;101010.63;107094;1271;24338;-53
2023/04/14 16:38:57;;;;;;;2.90;2.30;;;;;;;17.15;52.85;101008.42;107092;1270;22576;-53
2023/04/14 16:41:26;;;;;;;2.50;2.10;;;;;;;17.14;52.61;101010.95;107090;1270;25356;-54